Time;durP1;ratioP1;P1;durP2;ratioP2;P2;SDS_P1;SDS_P2;PMS_P1;PMS_P2;Temp;Humidity;BMP_temperature;BMP_pressure;BME280_temperature;BME280_humidity;BME280_pressure;Samples;Min_cycle;Max_cycle;Signal;HPM_P1;HPM_P2
2022/11/17 00:01:05;;;;;;;;;;;;;;;21.23;30.49;96745.50;5017792;28;967;-76
2022/11/17 00:03:30;;;;;;;;;;;;;;;21.24;30.20;96747.09;5017188;28;1903;-75
2022/11/17 00:05:56;;;;;;;;;;;;;;;21.24;30.37;96749.13;5017270;28;974;-75
2022/11/17 00:08:21;;;;;;;;;;;;;;;21.07;30.62;96737.34;5017601;28;940;-75
2022/11/17 00:10:47;;;;;;;;;;;;;;;20.97;30.41;96750.69;5017363;28;994;-75
2022/11/17 00:15:56;;;;;;;;;;;;;;;20.62;31.11;96753.00;5017273;28;974;-75
2022/11/17 00:21:20;;;;;;;;;;;;;;;21.32;30.41;96764.56;5058743;28;1215;-75
2022/11/17 00:23:45;;;;;;;;;;;;;;;21.02;30.85;96754.94;5043011;28;1981;-75
2022/11/17 00:26:18;;;;;;;;;;;;;;;20.77;31.28;96753.97;5058824;28;901;-75
2022/11/17 00:28:43;;;;;;;;;;;;;;;20.90;30.69;96761.56;5058753;28;865;-76
2022/11/17 00:34:05;;;;;;;;;;;;;;;21.33;30.27;96751.97;5058555;28;921;-75
2022/11/17 00:36:32;;;;;;;;;;;;;;;21.10;30.77;96742.06;5027049;28;926;-75
2022/11/17 00:38:57;;;;;;;;;;;;;;;21.04;30.58;96739.09;5058656;28;919;-75
2022/11/17 00:41:23;;;;;;;;;;;;;;;21.07;30.47;96743.00;5059066;28;830;-75
2022/11/17 00:43:48;;;;;;;;;;;;;;;20.96;30.47;96742.69;5058223;28;2038;-75
2022/11/17 00:46:14;;;;;;;;;;;;;;;20.76;30.60;96735.47;5058542;28;892;-75
2022/11/17 00:48:39;;;;;;;;;;;;;;;21.04;30.82;96735.47;5058310;28;853;-75
2022/11/17 00:51:05;;;;;;;;;;;;;;;21.21;30.55;96733.88;5023126;28;1187;-75
2022/11/17 00:53:30;;;;;;;;;;;;;;;20.97;30.66;96733.72;5058393;28;941;-76
2022/11/17 00:55:56;;;;;;;;;;;;;;;20.79;31.02;96734.53;5058459;28;848;-75
2022/11/17 00:58:21;;;;;;;;;;;;;;;20.99;30.46;96730.47;5058821;28;1076;-75
2022/11/17 01:00:49;;;;;;;;;;;;;;;20.94;30.43;96728.25;5058504;28;884;-75
2022/11/17 01:03:15;;;;;;;;;;;;;;;21.18;30.58;96723.50;5040599;28;1898;-75
2022/11/17 01:05:40;;;;;;;;;;;;;;;21.11;30.73;96721.00;5058216;28;896;-75
2022/11/17 01:08:06;;;;;;;;;;;;;;;20.97;30.65;96716.00;5058032;28;925;-75
2022/11/17 01:10:33;;;;;;;;;;;;;;;20.70;31.12;96720.38;5057598;28;951;-75
2022/11/17 01:12:58;;;;;;;;;;;;;;;20.88;30.63;96718.81;5058115;28;955;-75
2022/11/17 01:15:24;;;;;;;;;;;;;;;20.84;30.85;96715.38;5058261;28;936;-75
2022/11/17 01:17:49;;;;;;;;;;;;;;;21.21;30.62;96707.66;5039803;28;931;-75
2022/11/17 01:20:14;;;;;;;;;;;;;;;21.07;30.74;96703.41;5020154;28;1490;-75
2022/11/17 01:22:40;;;;;;;;;;;;;;;21.12;30.62;96705.59;5038187;28;884;-75
2022/11/17 01:25:06;;;;;;;;;;;;;;;20.98;30.51;96703.41;5038169;28;1975;-75
2022/11/17 01:27:31;;;;;;;;;;;;;;;21.00;30.44;96709.41;5037956;28;849;-75
2022/11/17 01:29:56;;;;;;;;;;;;;;;20.61;31.09;96700.59;5037545;28;996;-75
2022/11/17 01:32:22;;;;;;;;;;;;;;;20.91;31.09;96695.25;5037909;28;898;-75
2022/11/17 01:34:47;;;;;;;;;;;;;;;21.23;30.71;96700.25;5037500;28;1010;-75
2022/11/17 01:37:18;;;;;;;;;;;;;;;21.12;30.77;96693.50;5038028;28;881;-75
2022/11/17 01:39:44;;;;;;;;;;;;;;;20.90;30.90;96690.88;5037324;28;929;-75
2022/11/17 01:42:14;;;;;;;;;;;;;;;20.44;31.75;96674.63;5037744;28;882;-75
2022/11/17 01:44:47;;;;;;;;;;;;;;;20.58;31.30;96673.28;5036074;28;1958;-76
2022/11/17 01:47:20;;;;;;;;;;;;;;;20.84;30.95;96678.63;5037397;28;936;-75
2022/11/17 01:49:46;;;;;;;;;;;;;;;21.13;30.58;96678.88;5037861;28;1094;-75
2022/11/17 01:52:11;;;;;;;;;;;;;;;21.33;30.24;96676.38;5037254;28;1130;-75
2022/11/17 01:54:39;;;;;;;;;;;;;;;21.00;30.50;96662.09;5037417;28;1019;-76
2022/11/17 01:57:07;;;;;;;;;;;;;;;21.03;30.75;96658.31;5037117;28;983;-75
2022/11/17 01:59:39;;;;;;;;;;;;;;;20.73;31.15;96664.97;5036878;28;890;-75
2022/11/17 02:02:04;;;;;;;;;;;;;;;21.06;31.32;96668.69;5035964;28;982;-75
2022/11/17 02:04:31;;;;;;;;;;;;;;;21.05;30.76;96666.34;5018841;28;1914;-75
2022/11/17 02:07:01;;;;;;;;;;;;;;;21.11;30.54;96658.78;5035963;28;962;-75
2022/11/17 02:09:26;;;;;;;;;;;;;;;21.10;30.43;96656.44;5019864;28;925;-75
2022/11/17 02:11:51;;;;;;;;;;;;;;;20.80;30.87;96651.28;5036999;28;976;-75
2022/11/17 02:14:17;;;;;;;;;;;;;;;21.05;30.33;96655.81;5037050;28;979;-75
2022/11/17 02:16:42;;;;;;;;;;;;;;;20.97;30.55;96648.91;5037191;28;990;-75
2022/11/17 02:19:08;;;;;;;;;;;;;;;21.03;31.05;96657.53;5036996;28;961;-75
2022/11/17 02:21:39;;;;;;;;;;;;;;;21.19;30.38;96654.38;5035576;28;1204;-76
2022/11/17 02:24:11;;;;;;;;;;;;;;;20.91;31.06;96644.38;5036485;28;1906;-75
2022/11/17 02:26:46;;;;;;;;;;;;;;;20.87;30.59;96647.34;5036450;28;968;-75
2022/11/17 02:29:14;;;;;;;;;;;;;;;20.77;30.87;96646.56;5035544;28;894;-75
2022/11/17 02:31:54;;;;;;;;;;;;;;;20.73;30.83;96651.63;5037092;28;935;-75
2022/11/17 02:34:20;;;;;;;;;;;;;;;20.91;31.03;96655.66;5035153;28;884;-75
2022/11/17 02:36:48;;;;;;;;;;;;;;;21.17;30.71;96656.88;5036731;28;904;-76
2022/11/17 02:39:17;;;;;;;;;;;;;;;20.80;30.89;96656.94;5035200;28;940;-75
2022/11/17 02:41:51;;;;;;;;;;;;;;;20.74;30.96;96653.19;5036727;28;919;-75
2022/11/17 02:44:17;;;;;;;;;;;;;;;20.90;30.64;96648.47;4994579;28;1988;-76
2022/11/17 02:47:11;;;;;;;;;;;;;;;20.62;31.24;96642.78;4994971;28;938;-76
2022/11/17 02:49:37;;;;;;;;;;;;;;;21.01;30.99;96648.75;4917671;29;1187;-75
2022/11/17 02:52:03;;;;;;;;;;;;;;;21.20;30.50;96644.63;4902127;29;1058;-75
2022/11/17 02:54:29;;;;;;;;;;;;;;;20.99;30.84;96639.97;4902084;29;1039;-75
2022/11/17 02:56:55;;;;;;;;;;;;;;;20.88;31.06;96634.00;4902276;29;1014;-75
2022/11/17 02:59:40;;;;;;;;;;;;;;;20.83;30.79;96635.44;4901919;29;1128;-75
2022/11/17 03:02:15;;;;;;;;;;;;;;;21.09;30.87;96638.69;4917417;29;1105;-75
2022/11/17 03:04:49;;;;;;;;;;;;;;;21.22;30.50;96630.78;4917743;29;1923;-75
2022/11/17 03:07:21;;;;;;;;;;;;;;;21.27;30.56;96626.53;4917541;29;954;-75
2022/11/17 03:09:48;;;;;;;;;;;;;;;20.88;31.23;96628.34;4902171;29;1024;-76
2022/11/17 03:12:21;;;;;;;;;;;;;;;20.68;31.47;96626.81;4898842;29;986;-75
2022/11/17 03:14:52;;;;;;;;;;;;;;;20.95;30.60;96616.72;4910100;29;970;-75
2022/11/17 03:17:21;;;;;;;;;;;;;;;20.86;31.35;96613.91;4936772;29;993;-75
2022/11/17 03:19:47;;;;;;;;;;;;;;;21.19;30.74;96609.13;4920870;29;1192;-76
2022/11/17 03:22:12;;;;;;;;;;;;;;;20.94;31.03;96601.03;4904647;29;1223;-75
2022/11/17 03:24:38;;;;;;;;;;;;;;;21.00;30.68;96590.63;4936510;29;1976;-75
2022/11/17 03:27:06;;;;;;;;;;;;;;;21.00;30.75;96597.06;5009340;28;1100;-76
2022/11/17 03:29:32;;;;;;;;;;;;;;;20.73;31.02;96583.78;5014139;28;1029;-75
2022/11/17 03:31:58;;;;;;;;;;;;;;;21.14;30.92;96587.16;4997709;28;962;-75
2022/11/17 03:34:24;;;;;;;;;;;;;;;21.21;30.84;96589.63;4999467;28;965;-75
2022/11/17 03:36:51;;;;;;;;;;;;;;;20.94;30.95;96603.84;5001665;28;940;-75
2022/11/17 03:39:22;;;;;;;;;;;;;;;20.84;31.13;96594.59;5001708;28;912;-76
2022/11/17 03:41:48;;;;;;;;;;;;;;;20.90;30.98;96598.34;5002032;28;992;-75
2022/11/17 03:44:13;;;;;;;;;;;;;;;20.59;31.40;96592.88;5000687;28;1902;-75
2022/11/17 03:46:39;;;;;;;;;;;;;;;20.53;31.65;96581.44;5020851;28;992;-75
2022/11/17 03:49:08;;;;;;;;;;;;;;;21.04;31.19;96582.78;5018874;28;898;-75
2022/11/17 03:51:33;;;;;;;;;;;;;;;21.46;30.49;96587.69;5019955;28;928;-75
2022/11/17 03:53:59;;;;;;;;;;;;;;;20.80;31.48;96571.34;5039647;28;925;-75
2022/11/17 03:56:27;;;;;;;;;;;;;;;20.91;31.39;96576.50;5019185;28;971;-76
2022/11/17 03:59:22;;;;;;;;;;;;;;;20.63;31.67;96578.59;5039595;28;940;-75
2022/11/17 04:01:48;;;;;;;;;;;;;;;20.70;31.27;96579.06;4997769;28;1063;-76
2022/11/17 04:04:17;;;;;;;;;;;;;;;21.14;31.36;96577.84;4997634;28;1966;-75
2022/11/17 04:06:42;;;;;;;;;;;;;;;21.05;31.26;96570.19;4997968;28;1037;-75
2022/11/17 04:09:08;;;;;;;;;;;;;;;21.02;31.47;96571.91;4997968;28;1183;-76
2022/11/17 04:17:05;;;;;;;;;;;;;;;21.16;31.02;96570.47;4958589;29;973;-75
2022/11/17 04:19:31;;;;;;;;;;;;;;;21.24;30.92;96574.53;4961581;28;1217;-76
2022/11/17 04:21:56;;;;;;;;;;;;;;;21.39;30.62;96574.66;4977784;28;956;-75
2022/11/17 04:24:22;;;;;;;;;;;;;;;20.84;31.10;96566.31;4977997;28;1973;-76
2022/11/17 04:29:32;;;;;;;;;;;;;;;21.03;30.64;96567.03;4977663;28;904;-76
2022/11/17 04:31:58;;;;;;;;;;;;;;;20.69;31.17;96566.19;4977798;28;1055;-75
2022/11/17 04:34:23;;;;;;;;;;;;;;;21.18;30.92;96567.94;4978128;28;989;-75
2022/11/17 04:36:49;;;;;;;;;;;;;;;21.05;30.96;96570.97;4978065;28;903;-76
2022/11/17 04:39:15;;;;;;;;;;;;;;;21.16;30.54;96567.63;4977661;28;1047;-75
2022/11/17 04:41:52;;;;;;;;;;;;;;;20.70;31.10;96555.66;4977804;28;937;-75
2022/11/17 04:44:18;;;;;;;;;;;;;;;20.88;30.91;96566.94;4963006;28;1910;-75
2022/11/17 04:46:44;;;;;;;;;;;;;;;20.67;30.87;96565.84;4976373;28;974;-75
2022/11/17 04:49:10;;;;;;;;;;;;;;;21.00;30.94;96577.28;4977936;28;1029;-75
2022/11/17 04:51:35;;;;;;;;;;;;;;;21.06;30.48;96572.53;5013686;28;968;-75
2022/11/17 04:54:01;;;;;;;;;;;;;;;20.99;30.48;96577.75;5038238;28;990;-75
2022/11/17 04:56:26;;;;;;;;;;;;;;;20.71;30.98;96574.19;5038490;28;924;-76
2022/11/17 04:58:52;;;;;;;;;;;;;;;20.79;30.63;96581.09;5038117;28;964;-75
2022/11/17 05:01:17;;;;;;;;;;;;;;;21.10;30.90;96577.25;5038188;28;921;-75
2022/11/17 05:03:44;;;;;;;;;;;;;;;21.12;30.53;96575.50;5036575;28;1965;-76
2022/11/17 05:06:10;;;;;;;;;;;;;;;21.25;30.12;96578.16;5031705;28;936;-75
2022/11/17 05:08:36;;;;;;;;;;;;;;;20.93;30.46;96576.81;5038467;28;976;-75
2022/11/17 05:13:47;;;;;;;;;;;;;;;20.85;30.43;96572.75;5037911;28;1122;-75
2022/11/17 05:18:56;;;;;;;;;;;;;;;21.02;30.54;96559.81;5037950;28;911;-75
2022/11/17 05:21:22;;;;;;;;;;;;;;;21.16;30.12;96564.81;5017756;28;1445;-76
2022/11/17 05:23:53;;;;;;;;;;;;;;;20.95;30.05;96565.81;5037958;28;1953;-75
2022/11/17 05:26:19;;;;;;;;;;;;;;;20.73;30.81;96555.50;5038159;28;924;-76
2022/11/17 05:28:45;;;;;;;;;;;;;;;20.62;30.92;96555.19;5032679;28;1202;-74
2022/11/17 05:31:10;;;;;;;;;;;;;;;20.54;30.66;96553.97;5053078;28;1931;-76
2022/11/17 05:33:36;;;;;;;;;;;;;;;20.94;30.50;96558.59;5046560;28;1241;-75
2022/11/17 05:36:02;;;;;;;;;;;;;;;20.94;30.49;96552.94;5046686;28;1210;-76
2022/11/17 05:38:27;;;;;;;;;;;;;;;21.07;30.13;96545.03;5051595;28;1221;-76
2022/11/17 05:40:53;;;;;;;;;;;;;;;20.87;30.54;96548.38;5052464;28;1079;-75
2022/11/17 05:43:18;;;;;;;;;;;;;;;20.65;30.44;96542.94;5057521;28;1969;-76
2022/11/17 05:45:44;;;;;;;;;;;;;;;20.75;30.41;96535.25;5045968;28;1070;-76
2022/11/17 05:48:09;;;;;;;;;;;;;;;20.80;30.75;96541.03;5051998;28;1222;-75
2022/11/17 05:50:34;;;;;;;;;;;;;;;20.98;30.37;96539.41;5051185;28;1315;-75
2022/11/17 05:53:00;;;;;;;;;;;;;;;20.88;30.55;96537.88;5051241;28;1315;-76
2022/11/17 05:55:25;;;;;;;;;;;;;;;20.81;30.32;96536.16;5037659;28;1341;-75
2022/11/17 05:57:51;;;;;;;;;;;;;;;20.72;30.28;96542.59;5050934;28;1221;-75
2022/11/17 06:00:16;;;;;;;;;;;;;;;20.52;30.85;96545.16;5051353;28;1309;-75
2022/11/17 06:03:01;;;;;;;;;;;;;;;21.15;29.83;96540.63;5034251;28;1305;-75
2022/11/17 06:05:26;;;;;;;;;;;;;;;21.22;29.60;96545.94;5056616;28;1902;-76
2022/11/17 06:07:53;;;;;;;;;;;;;;;21.08;30.07;96547.38;5057117;28;924;-75
2022/11/17 06:10:19;;;;;;;;;;;;;;;20.80;30.20;96548.72;5039017;28;965;-75
2022/11/17 06:12:44;;;;;;;;;;;;;;;20.70;30.52;96536.66;5049597;28;1122;-75
2022/11/17 06:15:10;;;;;;;;;;;;;;;20.69;30.59;96540.75;5046154;28;1296;-76
2022/11/17 06:17:40;;;;;;;;;;;;;;;20.92;30.30;96530.00;5054962;28;1276;-75
2022/11/17 06:20:32;;;;;;;;;;;;;;;21.10;30.02;96524.31;5055669;28;1310;-75
2022/11/17 06:22:58;;;;;;;;;;;;;;;20.97;30.18;96524.50;4975593;28;993;-76
2022/11/17 06:25:24;;;;;;;;;;;;;;;20.93;29.95;96523.09;4975693;28;1963;-76
2022/11/17 06:27:49;;;;;;;;;;;;;;;20.74;30.03;96523.16;4959616;28;1012;-75
2022/11/17 06:30:17;;;;;;;;;;;;;;;20.73;30.44;96521.59;4959852;28;1005;-75
2022/11/17 06:32:43;;;;;;;;;;;;;;;21.08;30.13;96509.84;4975591;28;953;-75
2022/11/17 06:35:09;;;;;;;;;;;;;;;21.14;29.87;96507.13;4975503;28;1082;-75
2022/11/17 06:37:34;;;;;;;;;;;;;;;21.11;29.77;96508.13;4959977;28;999;-76
2022/11/17 06:39:59;;;;;;;;;;;;;;;20.87;30.37;96519.34;4975446;28;972;-75
2022/11/17 06:45:09;;;;;;;;;;;;;;;20.85;29.97;96510.56;4975466;28;1910;-75
2022/11/17 06:47:34;;;;;;;;;;;;;;;21.10;30.02;96510.16;4959381;28;1046;-76
2022/11/17 06:49:59;;;;;;;;;;;;;;;20.92;30.17;96498.91;4975231;28;955;-76
2022/11/17 06:52:25;;;;;;;;;;;;;;;21.38;29.38;96501.56;4975468;28;1035;-76
2022/11/17 06:54:50;;;;;;;;;;;;;;;20.98;29.91;96506.25;4975483;28;1120;-76
2022/11/17 06:57:16;;;;;;;;;;;;;;;20.74;30.49;96505.41;4975537;28;853;-76
2022/11/17 06:59:41;;;;;;;;;;;;;;;20.73;30.28;96510.28;5014534;28;999;-75
2022/11/17 07:02:07;;;;;;;;;;;;;;;21.19;29.91;96509.31;5037403;28;978;-76
2022/11/17 07:04:32;;;;;;;;;;;;;;;21.05;30.15;96502.31;5055797;28;1894;-76
2022/11/17 07:06:57;;;;;;;;;;;;;;;21.02;30.12;96497.63;5056579;28;918;-76
2022/11/17 07:09:24;;;;;;;;;;;;;;;20.89;30.25;96494.22;5055479;28;1023;-76
2022/11/17 07:11:50;;;;;;;;;;;;;;;20.90;30.12;96488.09;5054944;28;1030;-76
2022/11/17 07:14:15;;;;;;;;;;;;;;;20.85;30.40;96479.47;5055972;28;960;-76
2022/11/17 07:16:42;;;;;;;;;;;;;;;20.69;30.57;96492.69;5056317;28;956;-76
2022/11/17 07:19:08;;;;;;;;;;;;;;;20.92;30.48;96479.13;5055845;28;971;-76
2022/11/17 07:21:34;;;;;;;;;;;;;;;21.11;29.81;96483.44;5076394;28;1215;-75
2022/11/17 07:23:59;;;;;;;;;;;;;;;21.43;29.54;96486.75;5057945;28;1981;-75
2022/11/17 07:26:25;;;;;;;;;;;;;;;21.40;29.49;96479.22;5076202;28;862;-76
2022/11/17 07:28:50;;;;;;;;;;;;;;;21.04;29.82;96466.81;5076008;28;991;-75
2022/11/17 07:31:15;;;;;;;;;;;;;;;20.73;30.42;96470.72;5076065;28;889;-75
2022/11/17 07:33:41;;;;;;;;;;;;;;;21.01;29.87;96460.06;5076246;28;911;-76
2022/11/17 07:36:08;;;;;;;;;;;;;;;20.87;30.13;96462.78;5076109;28;908;-73
2022/11/17 07:38:34;;;;;;;;;;;;;;;20.89;29.90;96463.13;5075823;28;929;-74
2022/11/17 07:40:59;;;;;;;;;;;;;;;20.99;30.04;96459.00;5075974;28;960;-73
2022/11/17 07:43:25;;;;;;;;;;;;;;;21.13;29.66;96458.28;5075827;28;1973;-74
2022/11/17 07:45:50;;;;;;;;;;;;;;;21.00;30.02;96449.25;5075969;28;1081;-73
2022/11/17 07:48:16;;;;;;;;;;;;;;;20.83;30.29;96451.69;5075682;28;964;-74
2022/11/17 07:50:41;;;;;;;;;;;;;;;20.44;31.11;96453.50;5075662;28;928;-74
2022/11/17 07:53:07;;;;;;;;;;;;;;;20.74;30.49;96449.66;5075984;28;947;-73
2022/11/17 07:55:32;;;;;;;;;;;;;;;20.77;30.62;96451.53;5075610;28;969;-74
2022/11/17 07:57:58;;;;;;;;;;;;;;;21.16;29.78;96451.69;5075780;28;922;-74
2022/11/17 08:00:24;;;;;;;;;;;;;;;20.99;29.93;96444.84;5075814;28;846;-74
2022/11/17 08:02:49;;;;;;;;;;;;;;;20.76;30.27;96447.13;5041205;28;1054;-74
2022/11/17 08:05:16;;;;;;;;;;;;;;;20.53;30.70;96445.03;5040544;28;1909;-74
2022/11/17 08:07:42;;;;;;;;;;;;;;;20.70;30.30;96443.38;5058142;28;886;-75
2022/11/17 08:10:08;;;;;;;;;;;;;;;21.48;29.69;96444.44;5075597;28;824;-75
2022/11/17 08:12:33;;;;;;;;;;;;;;;21.16;29.71;96450.91;5075462;28;895;-75
2022/11/17 08:14:58;;;;;;;;;;;;;;;21.05;29.84;96440.88;5075440;28;1005;-75
2022/11/17 08:17:24;;;;;;;;;;;;;;;20.79;30.28;96445.41;5075649;28;842;-74
2022/11/17 08:19:49;;;;;;;;;;;;;;;20.71;30.63;96439.28;5041555;28;1022;-75
2022/11/17 08:22:15;;;;;;;;;;;;;;;20.66;30.57;96439.94;5044952;28;1430;-75
2022/11/17 08:24:40;;;;;;;;;;;;;;;20.65;30.57;96434.78;5061193;28;1980;-76
2022/11/17 08:27:06;;;;;;;;;;;;;;;21.31;29.56;96446.91;5043655;28;1020;-75
2022/11/17 08:29:31;;;;;;;;;;;;;;;21.42;29.58;96445.59;5079255;28;884;-75
2022/11/17 08:31:56;;;;;;;;;;;;;;;20.86;30.11;96455.59;5078983;28;964;-74
2022/11/17 08:34:22;;;;;;;;;;;;;;;20.90;30.44;96445.66;5078790;28;932;-74
2022/11/17 08:36:47;;;;;;;;;;;;;;;20.73;30.49;96445.28;5060685;28;1475;-73
2022/11/17 08:39:14;;;;;;;;;;;;;;;20.58;30.90;96447.22;5060651;28;944;-74
2022/11/17 08:41:39;;;;;;;;;;;;;;;20.97;30.47;96453.81;5079071;28;897;-74
2022/11/17 08:44:05;;;;;;;;;;;;;;;21.24;29.97;96455.72;5043155;28;1984;-74
2022/11/17 08:46:30;;;;;;;;;;;;;;;21.08;29.80;96450.44;5078686;28;876;-74
2022/11/17 08:48:56;;;;;;;;;;;;;;;20.96;30.07;96449.41;5078451;28;910;-74
2022/11/17 08:51:21;;;;;;;;;;;;;;;20.84;30.36;96441.16;5078782;28;1061;-73
2022/11/17 08:53:47;;;;;;;;;;;;;;;20.75;30.46;96431.44;5060784;28;937;-75
2022/11/17 08:56:12;;;;;;;;;;;;;;;21.17;29.85;96450.41;5078919;28;1019;-74
2022/11/17 08:58:41;;;;;;;;;;;;;;;21.18;29.89;96443.47;5078818;28;878;-74
2022/11/17 09:01:10;;;;;;;;;;;;;;;21.07;30.02;96438.34;5016625;28;960;-74
2022/11/17 09:03:36;;;;;;;;;;;;;;;20.75;30.62;96428.59;4999727;28;1902;-74
2022/11/17 09:06:02;;;;;;;;;;;;;;;20.71;30.54;96428.00;5016370;28;1028;-74
2022/11/17 09:08:27;;;;;;;;;;;;;;;20.54;30.72;96418.34;5015870;28;936;-74
2022/11/17 09:10:53;;;;;;;;;;;;;;;20.93;30.68;96426.97;5015715;28;986;-75
2022/11/17 09:13:19;;;;;;;;;;;;;;;21.22;29.94;96432.00;5015890;28;1037;-74
2022/11/17 09:15:44;;;;;;;;;;;;;;;21.06;30.02;96431.13;5015661;28;1112;-75
2022/11/17 09:18:10;;;;;;;;;;;;;;;20.86;30.37;96427.31;5015872;28;967;-75
2022/11/17 09:20:35;;;;;;;;;;;;;;;20.86;30.19;96418.84;5015387;28;1069;-73
2022/11/17 09:23:01;;;;;;;;;;;;;;;20.75;30.48;96416.53;5015998;28;958;-74
2022/11/17 09:25:27;;;;;;;;;;;;;;;20.75;30.26;96411.66;5015521;28;1967;-74
2022/11/17 09:27:52;;;;;;;;;;;;;;;21.44;29.44;96418.38;5015690;28;962;-74
2022/11/17 09:30:21;;;;;;;;;;;;;;;21.04;29.91;96415.94;4999040;28;954;-74
2022/11/17 09:32:50;;;;;;;;;;;;;;;21.14;30.05;96419.47;5063576;28;883;-74
2022/11/17 09:35:15;;;;;;;;;;;;;;;20.96;29.86;96414.69;5077672;28;895;-74
2022/11/17 09:37:41;;;;;;;;;;;;;;;20.76;30.38;96418.88;5077601;28;884;-74
2022/11/17 09:40:09;;;;;;;;;;;;;;;20.72;30.27;96423.91;5077583;28;999;-74
2022/11/17 09:42:37;;;;;;;;;;;;;;;21.05;30.10;96428.81;5077679;28;928;-74
2022/11/17 09:45:04;;;;;;;;;;;;;;;20.77;30.55;96431.72;5025323;28;1907;-74
2022/11/17 09:47:39;;;;;;;;;;;;;;;20.93;30.00;96449.56;5059883;28;1065;-75
2022/11/17 09:50:21;;;;;;;;;;;;;;;20.70;30.34;96448.25;5077221;28;899;-74
2022/11/17 09:53:11;;;;;;;;;;;;;;;20.84;30.08;96453.25;5076986;28;954;-74
2022/11/17 09:55:39;;;;;;;;;;;;;;;20.71;30.31;96444.94;5076869;28;854;-75
2022/11/17 09:58:17;;;;;;;;;;;;;;;21.08;30.09;96456.09;5059461;28;936;-76
2022/11/17 10:00:46;;;;;;;;;;;;;;;21.25;29.62;96454.47;5025418;28;1168;-76
2022/11/17 10:03:31;;;;;;;;;;;;;;;21.26;29.48;96460.91;5059310;28;901;-76
2022/11/17 10:05:57;;;;;;;;;;;;;;;20.70;30.16;96453.91;5076128;28;1142;-76
2022/11/17 10:08:29;;;;;;;;;;;;;;;20.71;30.10;96447.78;5041351;28;963;-76
2022/11/17 10:10:54;;;;;;;;;;;;;;;20.45;30.46;96443.75;5076868;28;950;-76
2022/11/17 10:13:23;;;;;;;;;;;;;;;21.15;29.63;96438.81;5041409;28;969;-76
2022/11/17 10:15:49;;;;;;;;;;;;;;;21.09;29.58;96440.72;5070401;28;2087;-76
2022/11/17 10:18:15;;;;;;;;;;;;;;;21.11;29.55;96443.84;5022565;28;969;-76
2022/11/17 10:20:40;;;;;;;;;;;;;;;20.83;30.10;96445.22;5056808;28;1040;-76
2022/11/17 10:23:06;;;;;;;;;;;;;;;20.69;30.07;96441.81;5056735;28;916;-76
2022/11/17 10:25:36;;;;;;;;;;;;;;;20.56;30.52;96449.72;5056571;28;1910;-76
2022/11/17 10:28:02;;;;;;;;;;;;;;;20.55;30.56;96453.81;5056300;28;998;-76
2022/11/17 10:30:27;;;;;;;;;;;;;;;20.86;30.17;96449.94;5057233;28;924;-76
2022/11/17 10:32:53;;;;;;;;;;;;;;;21.19;29.33;96453.56;5056607;28;951;-76
2022/11/17 10:35:20;;;;;;;;;;;;;;;20.73;30.10;96448.09;5056327;28;873;-76
2022/11/17 10:37:54;;;;;;;;;;;;;;;20.56;30.29;96444.06;5056623;28;879;-76
2022/11/17 10:40:29;;;;;;;;;;;;;;;20.74;30.19;96438.34;5056316;28;919;-76
2022/11/17 10:43:00;;;;;;;;;;;;;;;21.08;29.86;96453.28;5055718;28;987;-76
2022/11/17 10:45:26;;;;;;;;;;;;;;;21.04;29.82;96466.81;5055515;28;1978;-76
2022/11/17 10:47:51;;;;;;;;;;;;;;;21.32;29.16;96461.84;5038967;28;1098;-76
2022/11/17 10:50:17;;;;;;;;;;;;;;;20.86;29.77;96449.94;5038297;28;1324;-76
2022/11/17 10:52:43;;;;;;;;;;;;;;;20.89;29.61;96449.78;5056077;28;1012;-75
2022/11/17 10:55:23;;;;;;;;;;;;;;;20.58;30.09;96449.25;5038301;28;2359;-76
2022/11/17 10:57:50;;;;;;;;;;;;;;;20.69;30.16;96447.47;5055923;28;960;-76
2022/11/17 11:00:29;;;;;;;;;;;;;;;21.06;29.68;96452.97;5038639;28;973;-76
2022/11/17 11:03:21;;;;;;;;;;;;;;;21.03;29.74;96453.94;5056174;28;920;-76
2022/11/17 11:06:05;;;;;;;;;;;;;;;20.63;30.16;96440.13;4994268;28;1062;-76
2022/11/17 11:08:57;;;;;;;;;;;;;;;20.59;30.22;96437.47;4994558;28;1049;-76
2022/11/17 11:11:29;;;;;;;;;;;;;;;20.67;29.97;96443.56;4992667;28;1096;-76
2022/11/17 11:13:55;;;;;;;;;;;;;;;21.12;29.22;96438.97;5010568;28;964;-76
2022/11/17 11:16:21;;;;;;;;;;;;;;;21.43;28.60;96442.28;4994248;28;980;-76
2022/11/17 11:18:50;;;;;;;;;;;;;;;20.97;29.49;96433.22;5010621;28;1072;-76
2022/11/17 11:21:16;;;;;;;;;;;;;;;20.77;29.80;96419.66;4989149;28;1308;-76
2022/11/17 11:23:56;;;;;;;;;;;;;;;20.57;30.05;96423.00;4994218;28;1906;-76
2022/11/17 11:26:41;;;;;;;;;;;;;;;20.84;30.04;96421.38;4994367;28;971;-76
2022/11/17 11:29:09;;;;;;;;;;;;;;;21.24;28.84;96424.63;4961697;28;1049;-76
2022/11/17 11:31:39;;;;;;;;;;;;;;;21.19;28.95;96416.78;4994143;28;959;-76
2022/11/17 11:34:22;;;;;;;;;;;;;;;20.84;29.62;96418.53;4978143;28;972;-76
2022/11/17 11:36:51;;;;;;;;;;;;;;;20.68;29.96;96406.34;4994119;28;1074;-75
2022/11/17 11:39:27;;;;;;;;;;;;;;;20.97;29.58;96399.28;4994048;28;973;-76
2022/11/17 11:42:06;;;;;;;;;;;;;;;20.86;29.60;96411.13;5006390;28;978;-74
2022/11/17 11:44:50;;;;;;;;;;;;;;;21.14;29.28;96403.31;5036933;28;1910;-74
2022/11/17 11:47:34;;;;;;;;;;;;;;;20.79;29.59;96405.84;5036744;28;915;-74
2022/11/17 11:50:04;;;;;;;;;;;;;;;20.75;29.54;96406.00;5053572;28;1049;-74
2022/11/17 11:52:33;;;;;;;;;;;;;;;20.83;29.42;96394.34;5049128;28;1032;-76
2022/11/17 11:55:09;;;;;;;;;;;;;;;20.92;29.68;96386.59;5037777;28;1003;-76
2022/11/17 11:57:35;;;;;;;;;;;;;;;21.06;29.33;96387.94;5040653;28;877;-74
2022/11/17 12:00:04;;;;;;;;;;;;;;;21.06;29.36;96380.25;5040362;28;938;-74
2022/11/17 12:02:31;;;;;;;;;;;;;;;21.03;29.40;96374.75;5056983;28;976;-74
2022/11/17 12:05:00;;;;;;;;;;;;;;;20.80;29.63;96379.13;5056995;28;1906;-74
2022/11/17 12:07:38;;;;;;;;;;;;;;;20.42;30.40;96371.25;5057224;28;1145;-74
2022/11/17 12:10:12;;;;;;;;;;;;;;;20.70;30.03;96374.78;5037576;28;995;-74
2022/11/17 12:12:38;;;;;;;;;;;;;;;20.89;29.84;96386.78;5056736;28;986;-74
2022/11/17 12:15:07;;;;;;;;;;;;;;;21.04;29.40;96379.16;5036776;28;1337;-75
2022/11/17 12:17:33;;;;;;;;;;;;;;;20.86;29.67;96387.75;5036698;28;919;-73
2022/11/17 12:19:59;;;;;;;;;;;;;;;20.52;30.05;96392.56;5036537;28;1194;-74
2022/11/17 12:22:27;;;;;;;;;;;;;;;20.48;30.29;96389.16;5036395;28;1045;-74
2022/11/17 12:25:01;;;;;;;;;;;;;;;20.30;30.55;96387.91;5037581;28;1906;-74
2022/11/17 12:27:32;;;;;;;;;;;;;;;20.91;29.71;96389.91;5039667;28;1118;-74
2022/11/17 12:29:58;;;;;;;;;;;;;;;21.01;29.64;96399.91;5056662;28;1014;-74
2022/11/17 12:32:42;;;;;;;;;;;;;;;20.93;29.71;96390.19;5056512;28;930;-75
2022/11/17 12:35:36;;;;;;;;;;;;;;;20.80;29.91;96391.22;5056526;28;982;-75
2022/11/17 12:38:16;;;;;;;;;;;;;;;20.80;29.57;96396.09;4977347;28;1271;-75
2022/11/17 12:40:45;;;;;;;;;;;;;;;21.27;29.51;96400.22;4977511;28;1008;-74
2022/11/17 12:43:13;;;;;;;;;;;;;;;21.06;29.48;96390.78;4961143;28;1084;-75
2022/11/17 12:45:51;;;;;;;;;;;;;;;21.23;29.39;96411.72;4984202;28;1906;-73
2022/11/17 12:48:17;;;;;;;;;;;;;;;20.87;29.48;96411.91;4996708;28;997;-74
2022/11/17 12:51:05;;;;;;;;;;;;;;;20.92;29.79;96416.91;4980507;28;965;-76
2022/11/17 12:53:35;;;;;;;;;;;;;;;20.58;29.99;96407.66;4957683;29;1031;-73
2022/11/17 12:56:19;;;;;;;;;;;;;;;20.95;29.78;96419.56;4941724;29;998;-73
2022/11/17 12:58:47;;;;;;;;;;;;;;;20.90;29.62;96416.63;4958022;29;975;-73
2022/11/17 13:01:31;;;;;;;;;;;;;;;21.27;29.08;96420.03;4957797;29;993;-73
2022/11/17 13:03:58;;;;;;;;;;;;;;;20.70;29.94;96426.44;4957639;29;1902;-73
2022/11/17 13:06:23;;;;;;;;;;;;;;;20.71;30.03;96416.69;4956607;28;1045;-73
2022/11/17 13:08:55;;;;;;;;;;;;;;;20.58;30.43;96418.16;4938024;29;1061;-73
2022/11/17 13:11:21;;;;;;;;;;;;;;;20.91;29.90;96423.84;4919039;29;992;-73
2022/11/17 13:13:46;;;;;;;;;;;;;;;20.94;29.66;96428.53;4923835;29;1065;-73
2022/11/17 13:16:18;;;;;;;;;;;;;;;20.88;29.52;96436.09;4938235;29;965;-73
2022/11/17 13:18:44;;;;;;;;;;;;;;;20.64;30.02;96438.88;4903093;29;1076;-75
2022/11/17 13:21:24;;;;;;;;;;;;;;;20.46;30.45;96445.31;4919114;29;1272;-73
2022/11/17 13:23:50;;;;;;;;;;;;;;;20.94;29.90;96439.84;4928339;29;1906;-73
2022/11/17 13:26:15;;;;;;;;;;;;;;;21.05;29.32;96440.13;4957778;29;1007;-73
2022/11/17 13:28:41;;;;;;;;;;;;;;;21.15;29.08;96433.16;4957129;29;969;-73
2022/11/17 13:31:11;;;;;;;;;;;;;;;21.08;29.46;96427.81;4925517;29;1543;-73
2022/11/17 13:33:36;;;;;;;;;;;;;;;20.57;30.14;96422.22;4941360;29;1014;-73